Time;durP1;ratioP1;P1;durP2;ratioP2;P2;SDS_P1;SDS_P2;PMS_P1;PMS_P2;Temp;Humidity;BMP_temperature;BMP_pressure;BME280_temperature;BME280_humidity;BME280_pressure;Samples;Min_cycle;Max_cycle;Signal;HPM_P1;HPM_P2
2022/09/10 00:00:21;;;;;;;27.23;14.33;;;;;;;;;;4983080;28;20190;-59
2022/09/10 00:02:48;;;;;;;24.90;14.53;;;;;;;;;;5010921;28;20170;-60
2022/09/10 00:05:14;;;;;;;26.80;15.17;;;;;;;;;;4992443;28;20199;-59
2022/09/10 00:07:41;;;;;;;26.27;14.70;;;;;;;;;;4992910;28;20187;-59
2022/09/10 00:10:07;;;;;;;25.30;14.10;;;;;;;;;;4991832;28;20222;-61
2022/09/10 00:12:34;;;;;;;27.37;14.57;;;;;;;;;;4999216;28;20247;-59
2022/09/10 00:15:04;;;;;;;28.20;15.07;;;;;;;;;;4999129;28;20201;-62
2022/09/10 00:17:31;;;;;;;26.93;15.60;;;;;;;;;;4994088;28;20582;-57
2022/09/10 00:20:01;;;;;;;24.43;13.80;;;;;;;;;;4994849;28;20241;-60
2022/09/10 00:22:27;;;;;;;25.80;16.05;;;;;;;;;;5008086;28;20414;-59
2022/09/10 00:24:56;;;;;;;30.23;16.40;;;;;;;;;;4997151;28;20539;-61
2022/09/10 00:27:23;;;;;;;23.20;13.97;;;;;;;;;;5001114;28;20197;-60
2022/09/10 00:29:53;;;;;;;25.73;13.90;;;;;;;;;;4985571;28;20274;-58
2022/09/10 00:32:23;;;;;;;26.43;14.03;;;;;;;;;;4998146;28;20176;-62
2022/09/10 00:34:49;;;;;;;26.27;12.97;;;;;;;;;;4991613;28;20175;-60
2022/09/10 00:37:16;;;;;;;26.40;14.83;;;;;;;;;;4991823;28;20195;-61
2022/09/10 00:39:42;;;;;;;24.47;13.70;;;;;;;;;;4974672;28;20175;-60
2022/09/10 00:42:10;;;;;;;20.03;11.90;;;;;;;;;;5003192;28;20172;-61
2022/09/10 00:44:39;;;;;;;29.87;14.40;;;;;;;;;;4988249;28;20179;-61
2022/09/10 00:47:14;;;;;;;22.83;14.80;;;;;;;;;;5005169;28;20676;-60
2022/09/10 00:49:53;;;;;;;21.90;11.77;;;;;;;;;;4992432;28;20190;-60
2022/09/10 00:52:22;;;;;;;25.63;13.37;;;;;;;;;;4990856;28;20206;-59
2022/09/10 00:54:48;;;;;;;19.83;12.83;;;;;;;;;;4991223;28;20221;-62
2022/09/10 00:57:18;;;;;;;23.57;13.63;;;;;;;;;;4995322;28;20213;-61
2022/09/10 00:59:46;;;;;;;27.47;14.40;;;;;;;;;;5000307;28;20183;-61
2022/09/10 01:02:13;;;;;;;27.70;14.63;;;;;;;;;;4995712;28;20215;-62
2022/09/10 01:04:40;;;;;;;25.40;13.43;;;;;;;;;;4989406;28;20163;-62
2022/09/10 01:07:08;;;;;;;21.57;13.23;;;;;;;;;;5008012;28;20169;-61
2022/09/10 01:09:35;;;;;;;23.47;13.70;;;;;;;;;;5001284;28;20186;-62
2022/09/10 01:12:07;;;;;;;20.57;12.17;;;;;;;;;;5009212;28;20167;-62
2022/09/10 01:14:34;;;;;;;21.93;13.00;;;;;;;;;;4997792;28;20179;-62
2022/09/10 01:17:18;;;;;;;26.70;11.67;;;;;;;;;;5005628;28;20186;-60
2022/09/10 01:20:04;;;;;;;23.17;13.33;;;;;;;;;;4984808;28;20660;-62
2022/09/10 01:22:36;;;;;;;23.50;12.30;;;;;;;;;;4971136;28;20175;-62
2022/09/10 01:25:19;;;;;;;25.00;14.13;;;;;;;;;;4984137;28;20254;-63
2022/09/10 01:27:48;;;;;;;22.97;13.30;;;;;;;;;;5000914;28;20552;-62
2022/09/10 01:30:28;;;;;;;26.77;19.03;;;;;;;;;;4992546;28;20193;-62
2022/09/10 01:32:58;;;;;;;24.93;13.40;;;;;;;;;;5003405;28;20183;-62
2022/09/10 01:35:31;;;;;;;22.23;12.10;;;;;;;;;;4995550;28;20256;-62
2022/09/10 01:37:59;;;;;;;24.03;12.70;;;;;;;;;;4987885;28;20225;-62
2022/09/10 01:40:28;;;;;;;22.33;12.63;;;;;;;;;;4993037;28;20610;-63
2022/09/10 01:43:05;;;;;;;19.73;11.40;;;;;;;;;;4997664;28;20207;-62
2022/09/10 01:45:53;;;;;;;21.07;10.90;;;;;;;;;;4993452;28;20855;-62
2022/09/10 01:48:38;;;;;;;22.17;11.90;;;;;;;;;;4948954;28;20758;-62
2022/09/10 01:51:23;;;;;;;23.77;13.10;;;;;;;;;;4995493;28;20593;-65
2022/09/10 01:53:49;;;;;;;28.93;12.70;;;;;;;;;;5003516;28;20868;-62
2022/09/10 01:56:15;;;;;;;19.20;10.53;;;;;;;;;;4989943;28;20595;-61
2022/09/10 01:58:43;;;;;;;22.87;11.83;;;;;;;;;;4997619;28;20207;-62
2022/09/10 02:01:10;;;;;;;18.97;11.53;;;;;;;;;;4993915;28;20178;-62
2022/09/10 02:03:38;;;;;;;19.43;10.43;;;;;;;;;;5003180;28;20176;-61
2022/09/10 02:06:06;;;;;;;22.77;11.93;;;;;;;;;;4998439;28;20202;-62
2022/09/10 02:08:33;;;;;;;20.60;12.13;;;;;;;;;;4990688;28;20179;-60
2022/09/10 02:11:04;;;;;;;20.07;11.00;;;;;;;;;;4997439;28;20183;-62
2022/09/10 02:13:31;;;;;;;23.00;11.33;;;;;;;;;;4977592;28;20333;-61
2022/09/10 02:15:58;;;;;;;19.57;11.10;;;;;;;;;;5004027;28;20182;-63
2022/09/10 02:18:24;;;;;;;21.17;10.43;;;;;;;;;;5000957;28;20786;-62
2022/09/10 02:20:52;;;;;;;14.07;8.60;;;;;;;;;;4996591;28;20175;-62
2022/09/10 02:23:20;;;;;;;20.00;10.53;;;;;;;;;;5005663;28;20182;-62
2022/09/10 02:25:48;;;;;;;25.70;10.83;;;;;;;;;;4993307;28;20225;-62
2022/09/10 02:28:14;;;;;;;25.03;12.03;;;;;;;;;;5003554;28;20303;-63
2022/09/10 02:30:40;;;;;;;21.10;11.50;;;;;;;;;;5000180;28;20180;-62
2022/09/10 02:33:06;;;;;;;20.70;12.23;;;;;;;;;;4998091;28;20690;-62
2022/09/10 02:35:32;;;;;;;22.20;11.43;;;;;;;;;;4996466;28;20195;-62
2022/09/10 02:37:58;;;;;;;16.97;9.57;;;;;;;;;;5006231;28;20219;-62
2022/09/10 02:40:27;;;;;;;21.53;10.53;;;;;;;;;;4981023;28;20212;-62
2022/09/10 02:42:54;;;;;;;19.33;10.50;;;;;;;;;;4996045;28;21960;-62
2022/09/10 02:45:20;;;;;;;20.53;12.87;;;;;;;;;;4998783;28;20768;-62
2022/09/10 02:47:47;;;;;;;24.97;11.27;;;;;;;;;;5007580;28;20268;-62
2022/09/10 02:50:14;;;;;;;20.17;10.47;;;;;;;;;;4977029;28;20335;-60
2022/09/10 02:52:40;;;;;;;24.83;11.40;;;;;;;;;;5000149;28;20184;-61
2022/09/10 02:55:07;;;;;;;17.10;11.30;;;;;;;;;;4989656;28;20590;-59
2022/09/10 02:57:33;;;;;;;23.80;12.37;;;;;;;;;;4988020;28;20218;-60
2022/09/10 03:00:01;;;;;;;24.27;13.30;;;;;;;;;;4986789;28;20322;-60
2022/09/10 03:02:27;;;;;;;22.00;11.80;;;;;;;;;;4982424;28;20194;-60
2022/09/10 03:04:53;;;;;;;19.20;10.97;;;;;;;;;;4991150;28;20534;-60
2022/09/10 03:07:20;;;;;;;23.07;12.33;;;;;;;;;;4988557;28;20234;-61
2022/09/10 03:09:46;;;;;;;20.67;10.87;;;;;;;;;;4989631;28;20185;-61
2022/09/10 03:12:14;;;;;;;26.13;12.97;;;;;;;;;;4999869;28;20795;-60
2022/09/10 03:14:40;;;;;;;22.37;12.30;;;;;;;;;;4996722;28;20187;-61
2022/09/10 03:17:07;;;;;;;34.50;31.20;;;;;;;;;;5003542;28;20193;-61
2022/09/10 03:19:33;;;;;;;24.73;12.63;;;;;;;;;;4988189;28;20501;-61
2022/09/10 03:21:59;;;;;;;23.13;12.73;;;;;;;;;;5002733;28;20182;-61
2022/09/10 03:24:25;;;;;;;24.17;12.53;;;;;;;;;;4995043;28;20188;-61
2022/09/10 03:26:51;;;;;;;24.48;13.93;;;;;;;;;;5002094;28;20438;-60
2022/09/10 03:29:17;;;;;;;23.20;13.27;;;;;;;;;;4987180;28;20178;-60
2022/09/10 03:31:45;;;;;;;33.70;30.03;;;;;;;;;;4983559;28;20181;-61
2022/09/10 03:34:11;;;;;;;23.80;12.33;;;;;;;;;;4986072;28;20266;-60
2022/09/10 03:36:37;;;;;;;24.90;13.53;;;;;;;;;;4991069;28;20180;-59
2022/09/10 03:39:04;;;;;;;22.53;12.63;;;;;;;;;;4991579;28;20701;-60
2022/09/10 03:41:30;;;;;;;24.90;13.20;;;;;;;;;;5003986;28;20764;-61
2022/09/10 03:43:57;;;;;;;23.63;13.57;;;;;;;;;;4994829;28;20174;-60
2022/09/10 03:46:24;;;;;;;21.37;13.50;;;;;;;;;;4977564;28;20190;-60
2022/09/10 03:48:50;;;;;;;21.07;13.53;;;;;;;;;;4996671;28;20237;-60
2022/09/10 03:51:16;;;;;;;17.57;12.13;;;;;;;;;;4982805;28;20191;-59
2022/09/10 03:53:42;;;;;;;24.70;12.87;;;;;;;;;;5001234;28;20234;-57
2022/09/10 03:56:10;;;;;;;19.90;12.63;;;;;;;;;;5001424;28;20186;-60
2022/09/10 03:58:36;;;;;;;27.90;13.20;;;;;;;;;;4998123;28;20221;-60
2022/09/10 04:01:03;;;;;;;19.40;12.07;;;;;;;;;;4992508;28;20246;-58
2022/09/10 04:03:29;;;;;;;23.87;12.90;;;;;;;;;;4993675;28;20544;-60
2022/09/10 04:05:57;;;;;;;20.57;12.77;;;;;;;;;;4997142;28;20203;-60
2022/09/10 04:08:23;;;;;;;30.67;13.40;;;;;;;;;;4997072;28;20182;-59
2022/09/10 04:10:49;;;;;;;24.33;13.00;;;;;;;;;;4996162;28;20427;-59
2022/09/10 04:13:15;;;;;;;17.70;12.30;;;;;;;;;;5000381;28;20183;-60
2022/09/10 04:15:46;;;;;;;23.00;12.07;;;;;;;;;;4996613;28;20186;-59
2022/09/10 04:18:12;;;;;;;22.00;12.20;;;;;;;;;;4990118;28;20203;-60
2022/09/10 04:20:39;;;;;;;26.03;12.37;;;;;;;;;;4990885;28;20186;-59
2022/09/10 04:23:05;;;;;;;23.63;13.50;;;;;;;;;;5000069;28;20418;-60
2022/09/10 04:25:32;;;;;;;24.90;12.87;;;;;;;;;;4975856;28;20189;-60
2022/09/10 04:27:58;;;;;;;23.10;12.07;;;;;;;;;;4986705;28;20578;-58
2022/09/10 04:30:25;;;;;;;23.37;13.63;;;;;;;;;;4991599;28;20191;-59
2022/09/10 04:32:51;;;;;;;24.97;13.17;;;;;;;;;;4990192;28;20472;-57
2022/09/10 04:35:18;;;;;;;24.53;13.27;;;;;;;;;;4975825;28;20194;-59
2022/09/10 04:37:44;;;;;;;29.50;13.73;;;;;;;;;;4986207;28;20265;-58
2022/09/10 04:40:10;;;;;;;26.07;13.97;;;;;;;;;;4994722;28;20203;-58
2022/09/10 04:42:37;;;;;;;27.60;14.80;;;;;;;;;;5004612;28;20233;-59
2022/09/10 04:45:03;;;;;;;23.33;12.10;;;;;;;;;;4960815;28;20631;-59
2022/09/10 04:47:36;;;;;;;24.87;11.60;;;;;;;;;;4970457;28;20189;-59
2022/09/10 04:50:05;;;;;;;24.77;12.87;;;;;;;;;;4988931;28;20191;-59
2022/09/10 04:52:31;;;;;;;18.50;13.57;;;;;;;;;;5003468;28;20193;-59
2022/09/10 04:54:58;;;;;;;23.53;12.23;;;;;;;;;;4974766;28;20546;-60
2022/09/10 04:57:24;;;;;;;17.57;11.80;;;;;;;;;;4995157;28;20250;-58
2022/09/10 04:59:52;;;;;;;20.70;12.00;;;;;;;;;;4998220;28;20263;-62
2022/09/10 05:02:19;;;;;;;23.10;15.10;;;;;;;;;;5007177;28;20185;-60
2022/09/10 05:04:45;;;;;;;24.80;11.93;;;;;;;;;;4990958;28;20182;-59
2022/09/10 05:07:11;;;;;;;15.90;9.80;;;;;;;;;;4990024;28;20717;-60
2022/09/10 05:09:37;;;;;;;25.23;11.37;;;;;;;;;;4994524;28;20284;-60
2022/09/10 05:12:04;;;;;;;20.33;11.23;;;;;;;;;;5007234;28;20190;-59
2022/09/10 05:14:30;;;;;;;25.37;12.17;;;;;;;;;;4993848;28;20182;-60
2022/09/10 05:16:56;;;;;;;22.37;12.27;;;;;;;;;;4987628;28;20532;-61
2022/09/10 05:19:23;;;;;;;21.43;12.30;;;;;;;;;;4991822;28;20183;-60
2022/09/10 05:21:50;;;;;;;23.87;11.33;;;;;;;;;;4987252;28;20191;-58
2022/09/10 05:24:16;;;;;;;23.90;11.50;;;;;;;;;;4988018;28;20179;-59
2022/09/10 05:26:43;;;;;;;20.33;10.93;;;;;;;;;;4970633;28;20635;-58
2022/09/10 05:29:10;;;;;;;23.60;10.93;;;;;;;;;;4965953;28;20705;-59
2022/09/10 05:31:36;;;;;;;23.47;12.10;;;;;;;;;;5005986;28;20194;-59
2022/09/10 05:34:02;;;;;;;19.20;11.30;;;;;;;;;;4991826;28;20312;-59
2022/09/10 05:36:30;;;;;;;19.90;12.67;;;;;;;;;;4988232;28;20212;-59
2022/09/10 05:38:58;;;;;;;19.97;12.00;;;;;;;;;;4969229;28;20203;-60
2022/09/10 05:41:26;;;;;;;23.87;11.87;;;;;;;;;;4988242;28;20181;-59
2022/09/10 05:43:53;;;;;;;21.47;11.57;;;;;;;;;;4984325;28;20665;-58
2022/09/10 05:46:19;;;;;;;21.67;12.13;;;;;;;;;;5010152;28;20157;-60
2022/09/10 05:48:46;;;;;;;27.23;13.10;;;;;;;;;;4991629;28;20206;-57
2022/09/10 05:51:26;;;;;;;21.77;12.60;;;;;;;;;;4989260;28;20339;-59
2022/09/10 05:53:52;;;;;;;27.90;12.27;;;;;;;;;;4952046;28;20215;-61
2022/09/10 05:56:19;;;;;;;18.77;9.87;;;;;;;;;;4970873;28;20205;-59
2022/09/10 05:58:46;;;;;;;22.70;10.73;;;;;;;;;;4963671;28;20207;-59
2022/09/10 06:01:12;;;;;;;17.70;10.33;;;;;;;;;;4953077;28;20202;-58
2022/09/10 06:03:39;;;;;;;19.47;9.93;;;;;;;;;;4966181;28;20652;-59
2022/09/10 06:06:05;;;;;;;23.93;11.80;;;;;;;;;;4969825;28;20204;-60
2022/09/10 06:08:31;;;;;;;21.03;11.03;;;;;;;;;;4965932;28;20188;-59
2022/09/10 06:11:05;;;;;;;19.77;10.87;;;;;;;;;;4968609;28;20176;-59
2022/09/10 06:13:32;;;;;;;21.27;11.83;;;;;;;;;;4960568;28;20210;-59
2022/09/10 06:15:59;;;;;;;22.80;11.73;;;;;;;;;;4969012;28;20211;-60
2022/09/10 06:18:25;;;;;;;19.53;11.57;;;;;;;;;;4962091;28;20215;-58
2022/09/10 06:21:02;;;;;;;11.97;7.33;;;;;;;;;;4954630;28;20183;-60
2022/09/10 06:23:29;;;;;;;12.27;7.10;;;;;;;;;;4967737;28;20222;-59
2022/09/10 06:26:18;;;;;;;9.37;6.60;;;;;;;;;;4953009;28;20263;-59
2022/09/10 06:28:45;;;;;;;9.67;5.53;;;;;;;;;;4967176;28;20188;-60
2022/09/10 06:31:15;;;;;;;10.53;6.30;;;;;;;;;;4949716;28;20179;-59
2022/09/10 06:33:42;;;;;;;9.10;5.63;;;;;;;;;;4967983;28;20603;-60
2022/09/10 06:36:09;;;;;;;6.77;5.07;;;;;;;;;;4988019;28;20647;-59
2022/09/10 06:38:36;;;;;;;11.40;6.10;;;;;;;;;;4973954;28;20289;-59
2022/09/10 06:41:04;;;;;;;4.83;4.20;;;;;;;;;;4963939;28;20523;-58
2022/09/10 06:43:32;;;;;;;8.00;4.73;;;;;;;;;;4965735;28;20641;-59
2022/09/10 06:45:59;;;;;;;9.70;4.87;;;;;;;;;;4950094;28;20174;-59
2022/09/10 06:48:30;;;;;;;5.10;4.60;;;;;;;;;;4950298;28;20180;-58
2022/09/10 06:51:03;;;;;;;8.63;4.47;;;;;;;;;;4954876;28;20710;-58
2022/09/10 06:53:31;;;;;;;9.30;4.57;;;;;;;;;;4966583;28;20168;-58
2022/09/10 06:56:09;;;;;;;5.37;4.23;;;;;;;;;;4988899;28;20752;-58
2022/09/10 06:58:36;;;;;;;7.17;4.47;;;;;;;;;;4985502;28;20291;-60
2022/09/10 07:01:06;;;;;;;5.77;4.63;;;;;;;;;;4985340;28;20537;-58
2022/09/10 07:03:33;;;;;;;5.13;4.27;;;;;;;;;;4989991;28;20182;-58
2022/09/10 07:06:02;;;;;;;7.47;4.47;;;;;;;;;;4972200;28;20261;-60
2022/09/10 07:08:29;;;;;;;6.17;4.30;;;;;;;;;;4986858;28;20183;-59
2022/09/10 07:11:00;;;;;;;4.97;4.40;;;;;;;;;;4966763;28;20191;-58
2022/09/10 07:13:27;;;;;;;5.83;4.50;;;;;;;;;;4978427;28;20190;-58
2022/09/10 07:15:53;;;;;;;6.70;4.17;;;;;;;;;;4980222;28;20206;-59
2022/09/10 07:18:19;;;;;;;5.07;4.47;;;;;;;;;;4983868;28;20192;-58
2022/09/10 07:20:46;;;;;;;9.13;5.03;;;;;;;;;;4967532;28;20182;-58
2022/09/10 07:23:13;;;;;;;6.77;4.60;;;;;;;;;;4970473;28;20627;-59
2022/09/10 07:25:40;;;;;;;5.43;4.93;;;;;;;;;;4994587;28;20171;-58
2022/09/10 07:28:12;;;;;;;9.47;4.97;;;;;;;;;;4985525;28;20179;-59
2022/09/10 07:30:41;;;;;;;6.77;5.47;;;;;;;;;;4969439;28;20194;-59
2022/09/10 07:33:09;;;;;;;5.63;5.13;;;;;;;;;;4968236;28;20176;-57
2022/09/10 07:35:35;;;;;;;4.67;4.30;;;;;;;;;;4968912;28;20186;-57
2022/09/10 07:38:02;;;;;;;8.53;5.07;;;;;;;;;;4982865;28;20195;-57
2022/09/10 07:40:28;;;;;;;6.50;4.13;;;;;;;;;;4969997;28;20666;-59
2022/09/10 07:42:55;;;;;;;6.20;4.67;;;;;;;;;;4984438;28;20179;-59
2022/09/10 07:45:21;;;;;;;5.93;4.60;;;;;;;;;;4966690;28;20603;-58
2022/09/10 07:47:48;;;;;;;7.03;5.60;;;;;;;;;;4984875;28;20187;-58
2022/09/10 07:50:15;;;;;;;6.23;4.73;;;;;;;;;;4967122;28;20219;-58
2022/09/10 07:52:41;;;;;;;6.83;5.00;;;;;;;;;;4966646;28;20178;-58
2022/09/10 07:55:08;;;;;;;4.47;4.03;;;;;;;;;;4969114;28;20706;-59
2022/09/10 07:57:38;;;;;;;5.40;4.17;;;;;;;;;;4979005;28;20210;-64
2022/09/10 08:00:06;;;;;;;8.60;4.73;;;;;;;;;;4979065;28;20266;-60
2022/09/10 08:02:32;;;;;;;4.90;4.40;;;;;;;;;;4982589;28;20179;-59
2022/09/10 08:04:58;;;;;;;4.87;4.47;;;;;;;;;;4981814;28;20183;-57
2022/09/10 08:07:24;;;;;;;7.47;4.63;;;;;;;;;;4983410;28;20182;-60
2022/09/10 08:09:50;;;;;;;4.37;3.70;;;;;;;;;;4979097;28;20190;-60
2022/09/10 08:12:16;;;;;;;5.93;4.80;;;;;;;;;;4984739;28;20175;-59
2022/09/10 08:14:42;;;;;;;5.70;5.20;;;;;;;;;;4980634;28;20187;-59
2022/09/10 08:17:09;;;;;;;6.17;4.37;;;;;;;;;;4964219;28;20179;-59
2022/09/10 08:19:36;;;;;;;6.33;4.70;;;;;;;;;;4982960;28;20891;-61
2022/09/10 08:22:02;;;;;;;6.27;4.10;;;;;;;;;;4968666;28;20178;-58
2022/09/10 08:24:28;;;;;;;7.57;4.90;;;;;;;;;;4966917;28;20853;-60
2022/09/10 08:26:59;;;;;;;5.30;4.83;;;;;;;;;;4970637;28;20453;-60
2022/09/10 08:29:25;;;;;;;5.87;4.70;;;;;;;;;;4980248;28;20179;-59
2022/09/10 08:31:51;;;;;;;7.33;4.87;;;;;;;;;;4986177;28;20194;-58
2022/09/10 08:34:18;;;;;;;6.03;5.20;;;;;;;;;;4974165;28;20717;-58
2022/09/10 08:36:45;;;;;;;7.77;4.73;;;;;;;;;;4973317;28;20274;-58
2022/09/10 08:39:12;;;;;;;6.33;5.10;;;;;;;;;;4972129;28;20277;-59
2022/09/10 08:41:39;;;;;;;7.77;5.70;;;;;;;;;;4970080;28;20179;-59
2022/09/10 08:44:06;;;;;;;8.40;5.73;;;;;;;;;;4990193;28;20179;-59
2022/09/10 08:46:49;;;;;;;7.00;5.77;;;;;;;;;;4996020;28;20447;-59
2022/09/10 08:49:34;;;;;;;11.43;7.03;;;;;;;;;;4983360;28;20180;-58
2022/09/10 08:52:13;;;;;;;7.87;6.07;;;;;;;;;;4989953;28;20174;-58
2022/09/10 08:54:49;;;;;;;8.77;6.80;;;;;;;;;;4987789;28;20616;-58
2022/09/10 08:57:31;;;;;;;8.70;6.97;;;;;;;;;;4965472;28;20179;-59
2022/09/10 08:59:58;;;;;;;9.67;7.17;;;;;;;;;;4974944;28;20212;-59
2022/09/10 09:02:31;;;;;;;8.47;6.77;;;;;;;;;;4967217;28;20643;-58
2022/09/10 09:05:09;;;;;;;8.90;7.90;;;;;;;;;;4977405;28;20203;-59
2022/09/10 09:07:38;;;;;;;12.93;8.07;;;;;;;;;;4969452;28;20175;-57
2022/09/10 09:10:05;;;;;;;10.00;7.67;;;;;;;;;;4985581;28;20557;-57
2022/09/10 09:12:49;;;;;;;11.13;7.90;;;;;;;;;;4963940;28;20183;-56
2022/09/10 09:15:17;;;;;;;10.10;7.90;;;;;;;;;;4979715;28;20218;-57
2022/09/10 09:17:57;;;;;;;10.67;8.03;;;;;;;;;;4985486;28;20215;-57
2022/09/10 09:20:43;;;;;;;8.93;7.87;;;;;;;;;;4984055;28;20508;-57
2022/09/10 09:23:09;;;;;;;10.07;8.03;;;;;;;;;;4980847;28;20266;-57
2022/09/10 09:25:42;;;;;;;9.77;8.87;;;;;;;;;;4987987;28;20642;-58
2022/09/10 09:28:14;;;;;;;8.40;7.43;;;;;;;;;;4994319;28;20602;-57
2022/09/10 09:30:48;;;;;;;9.53;8.03;;;;;;;;;;4971232;28;20670;-58
2022/09/10 09:33:15;;;;;;;8.90;7.57;;;;;;;;;;4965093;28;20604;-57
2022/09/10 09:35:52;;;;;;;14.47;8.80;;;;;;;;;;4986667;28;22360;-58
2022/09/10 09:38:23;;;;;;;10.90;7.97;;;;;;;;;;4983036;28;20199;-57
2022/09/10 09:40:51;;;;;;;8.67;7.50;;;;;;;;;;4985772;28;20182;-57
2022/09/10 09:43:36;;;;;;;12.70;8.77;;;;;;;;;;4970115;28;20190;-58
2022/09/10 09:46:05;;;;;;;10.63;8.13;;;;;;;;;;4967156;28;20590;-59
2022/09/10 09:48:35;;;;;;;9.90;8.90;;;;;;;;;;4974138;28;20609;-60
2022/09/10 09:51:02;;;;;;;10.40;8.73;;;;;;;;;;4996129;28;20179;-60
2022/09/10 09:53:29;;;;;;;12.27;10.27;;;;;;;;;;4962273;28;20179;-58
2022/09/10 09:55:57;;;;;;;15.20;11.33;;;;;;;;;;4988018;28;20684;-59
2022/09/10 09:58:25;;;;;;;13.27;10.63;;;;;;;;;;4984846;28;20535;-59
2022/09/10 10:01:03;;;;;;;12.87;10.10;;;;;;;;;;4974405;28;20275;-58
2022/09/10 10:03:47;;;;;;;11.00;9.83;;;;;;;;;;4975255;28;20535;-58
2022/09/10 10:06:14;;;;;;;14.53;11.00;;;;;;;;;;4974026;28;20207;-56
2022/09/10 10:08:45;;;;;;;14.97;10.83;;;;;;;;;;4979121;28;20215;-57
2022/09/10 10:11:13;;;;;;;15.13;10.93;;;;;;;;;;4968790;28;20214;-57
2022/09/10 10:13:41;;;;;;;13.03;10.30;;;;;;;;;;4974611;28;20184;-56
2022/09/10 10:16:19;;;;;;;11.60;10.53;;;;;;;;;;4993389;28;20183;-56
2022/09/10 10:18:46;;;;;;;10.83;9.47;;;;;;;;;;4966747;28;20324;-56
2022/09/10 10:21:14;;;;;;;11.80;9.87;;;;;;;;;;4987920;28;20180;-56
2022/09/10 10:23:40;;;;;;;10.87;9.97;;;;;;;;;;4982599;28;20186;-55
2022/09/10 10:26:22;;;;;;;12.43;10.77;;;;;;;;;;4982480;28;20179;-55
2022/09/10 10:28:49;;;;;;;10.30;9.40;;;;;;;;;;4968116;28;20787;-56
2022/09/10 10:31:16;;;;;;;11.67;10.57;;;;;;;;;;4970874;28;20670;-57
2022/09/10 10:33:48;;;;;;;11.40;10.30;;;;;;;;;;4980034;28;20188;-56
2022/09/10 10:36:19;;;;;;;12.83;11.43;;;;;;;;;;4985715;28;20194;-55
2022/09/10 10:38:48;;;;;;;10.67;9.73;;;;;;;;;;4987483;28;20290;-58
2022/09/10 10:41:30;;;;;;;10.83;9.83;;;;;;;;;;4949974;28;21091;-56
2022/09/10 10:44:18;;;;;;;10.93;9.83;;;;;;;;;;4974858;28;20185;-56
2022/09/10 10:47:03;;;;;;;14.63;11.53;;;;;;;;;;4979232;28;20206;-58
2022/09/10 10:49:31;;;;;;;11.20;10.07;;;;;;;;;;4990586;28;20695;-57
2022/09/10 10:52:06;;;;;;;12.87;11.60;;;;;;;;;;4978953;28;20266;-57
2022/09/10 10:54:51;;;;;;;13.00;11.57;;;;;;;;;;4989197;28;20226;-56
2022/09/10 10:57:30;;;;;;;12.57;11.27;;;;;;;;;;4982265;28;20187;-56
2022/09/10 11:00:03;;;;;;;14.20;12.80;;;;;;;;;;4985974;28;20171;-57
2022/09/10 11:02:49;;;;;;;13.63;12.10;;;;;;;;;;4991038;28;20186;-56
2022/09/10 11:05:29;;;;;;;14.37;13.07;;;;;;;;;;4976686;28;20531;-57
2022/09/10 11:07:58;;;;;;;13.53;12.10;;;;;;;;;;4964941;28;20179;-58
2022/09/10 11:10:31;;;;;;;13.70;12.30;;;;;;;;;;4979738;28;20186;-56
2022/09/10 11:13:04;;;;;;;15.03;13.47;;;;;;;;;;4984427;28;20250;-57
2022/09/10 11:15:37;;;;;;;15.23;13.83;;;;;;;;;;4967621;28;20211;-57
2022/09/10 11:18:04;;;;;;;15.30;13.90;;;;;;;;;;4989109;28;20721;-59
2022/09/10 11:20:49;;;;;;;15.33;13.73;;;;;;;;;;4968697;28;20674;-58
2022/09/10 11:23:35;;;;;;;15.43;13.80;;;;;;;;;;4984591;28;20179;-57
2022/09/10 11:26:37;;;;;;;17.63;14.20;;;;;;;;;;4959385;28;20680;-56
2022/09/10 11:29:15;;;;;;;16.90;15.10;;;;;;;;;;4911212;29;20265;-57
2022/09/10 11:31:43;;;;;;;15.57;14.17;;;;;;;;;;4976599;28;20211;-57
2022/09/10 11:34:21;;;;;;;17.80;15.03;;;;;;;;;;4965881;28;20183;-57
2022/09/10 11:36:52;;;;;;;15.73;13.93;;;;;;;;;;4983871;28;20189;-57
2022/09/10 11:39:30;;;;;;;15.93;14.27;;;;;;;;;;4971746;28;20218;-57
2022/09/10 11:41:58;;;;;;;17.73;15.07;;;;;;;;;;4974553;28;20589;-58
2022/09/10 11:44:35;;;;;;;15.77;14.27;;;;;;;;;;4976477;28;20583;-58
2022/09/10 11:47:04;;;;;;;16.97;15.47;;;;;;;;;;4964964;28;20235;-57
2022/09/10 11:49:36;;;;;;;16.43;14.90;;;;;;;;;;4974102;28;20527;-58
2022/09/10 11:52:10;;;;;;;17.53;15.83;;;;;;;;;;4992979;28;20190;-58
2022/09/10 11:54:37;;;;;;;17.23;15.57;;;;;;;;;;4981801;28;20219;-58
2022/09/10 11:57:22;;;;;;;18.23;16.40;;;;;;;;;;4998800;28;20642;-58
2022/09/10 12:00:08;;;;;;;23.07;20.97;;;;;;;;;;4975250;28;20182;-58
2022/09/10 12:02:41;;;;;;;18.50;16.70;;;;;;;;;;4991255;28;20671;-57
2022/09/10 12:05:07;;;;;;;18.30;16.47;;;;;;;;;;4991244;28;20205;-59
2022/09/10 12:07:48;;;;;;;18.10;16.20;;;;;;;;;;4988161;28;20175;-57
2022/09/10 12:10:15;;;;;;;16.07;14.50;;;;;;;;;;4983821;28;20178;-57
2022/09/10 12:12:42;;;;;;;15.87;14.47;;;;;;;;;;4986549;28;20255;-57
2022/09/10 12:15:18;;;;;;;16.67;15.03;;;;;;;;;;4955737;28;20196;-57
2022/09/10 12:17:46;;;;;;;15.37;13.97;;;;;;;;;;4971708;28;20200;-59
2022/09/10 12:20:17;;;;;;;18.03;16.30;;;;;;;;;;4977868;28;20179;-58
2022/09/10 12:22:43;;;;;;;14.93;13.63;;;;;;;;;;4997144;28;20166;-57
2022/09/10 12:25:17;;;;;;;14.47;13.13;;;;;;;;;;4987652;28;20693;-58
2022/09/10 12:27:43;;;;;;;12.87;11.67;;;;;;;;;;4993797;28;20168;-58
2022/09/10 12:30:35;;;;;;;13.30;11.87;;;;;;;;;;4986857;28;20193;-57
2022/09/10 12:33:23;;;;;;;12.80;11.37;;;;;;;;;;4942883;28;20196;-58
2022/09/10 12:35:50;;;;;;;12.90;11.57;;;;;;;;;;4984089;28;20182;-57
2022/09/10 12:38:35;;;;;;;11.60;10.60;;;;;;;;;;4982555;28;20195;-57
2022/09/10 12:41:02;;;;;;;12.03;10.80;;;;;;;;;;4990871;28;20694;-55
2022/09/10 12:43:42;;;;;;;13.60;11.70;;;;;;;;;;4971897;28;20215;-56
2022/09/10 12:46:17;;;;;;;11.77;10.53;;;;;;;;;;4987525;28;20179;-57
2022/09/10 12:48:47;;;;;;;11.80;10.70;;;;;;;;;;4955853;28;20249;-57
2022/09/10 12:51:19;;;;;;;12.70;11.60;;;;;;;;;;4972342;28;20234;-57
2022/09/10 12:54:00;;;;;;;11.57;10.67;;;;;;;;;;4988159;28;20176;-55
2022/09/10 12:56:44;;;;;;;12.43;11.20;;;;;;;;;;4985370;28;20215;-56
2022/09/10 12:59:17;;;;;;;11.97;10.77;;;;;;;;;;4988408;28;20199;-56
2022/09/10 13:01:46;;;;;;;13.87;11.27;;;;;;;;;;4968788;28;21057;-57
2022/09/10 13:04:29;;;;;;;12.00;10.87;;;;;;;;;;4984514;28;20231;-58
2022/09/10 13:07:00;;;;;;;12.83;11.40;;;;;;;;;;4977996;28;20195;-56
2022/09/10 13:09:29;;;;;;;12.27;11.27;;;;;;;;;;4990212;28;20325;-57
2022/09/10 13:11:57;;;;;;;11.70;10.63;;;;;;;;;;4985737;28;20186;-55
2022/09/10 13:14:26;;;;;;;12.90;11.80;;;;;;;;;;4988302;28;20217;-56
2022/09/10 13:16:54;;;;;;;13.27;12.10;;;;;;;;;;4976008;28;20179;-56
2022/09/10 13:19:20;;;;;;;13.40;12.00;;;;;;;;;;4975040;28;20207;-55
2022/09/10 13:21:47;;;;;;;12.73;11.63;;;;;;;;;;4980676;28;20179;-57
2022/09/10 13:24:42;;;;;;;14.60;13.13;;;;;;;;;;4974483;28;20566;-55
2022/09/10 13:27:21;;;;;;;13.67;12.37;;;;;;;;;;4965667;28;20545;-56
2022/09/10 13:29:50;;;;;;;15.80;14.27;;;;;;;;;;4979988;28;20709;-57
2022/09/10 13:32:27;;;;;;;14.53;13.00;;;;;;;;;;4979019;28;20176;-56
2022/09/10 13:34:56;;;;;;;14.60;13.20;;;;;;;;;;4986591;28;20603;-57
2022/09/10 13:37:22;;;;;;;13.77;12.37;;;;;;;;;;4982924;28;20653;-55
2022/09/10 13:39:48;;;;;;;15.67;14.17;;;;;;;;;;4986143;28;20579;-56
2022/09/10 13:42:15;;;;;;;13.27;12.00;;;;;;;;;;4990789;28;20860;-56
2022/09/10 13:45:02;;;;;;;16.10;14.40;;;;;;;;;;4988429;28;20226;-55
2022/09/10 13:47:46;;;;;;;15.40;11.43;;;;;;;;;;4965463;28;20179;-57
2022/09/10 13:50:17;;;;;;;12.67;10.30;;;;;;;;;;4965952;28;20207;-56
2022/09/10 13:52:44;;;;;;;12.57;11.37;;;;;;;;;;4968604;28;20173;-57
2022/09/10 13:55:19;;;;;;;16.40;14.87;;;;;;;;;;4981705;28;20229;-56
2022/09/10 13:57:47;;;;;;;14.40;12.90;;;;;;;;;;4980605;28;20240;-56
2022/09/10 14:00:16;;;;;;;16.50;15.20;;;;;;;;;;4985941;28;20290;-56
2022/09/10 14:02:57;;;;;;;11.83;10.83;;;;;;;;;;4985880;28;20171;-56
2022/09/10 14:05:32;;;;;;;14.10;12.73;;;;;;;;;;4973331;28;20259;-56
2022/09/10 14:08:13;;;;;;;13.63;12.27;;;;;;;;;;4966427;28;20180;-57
2022/09/10 14:10:59;;;;;;;12.10;11.00;;;;;;;;;;4990525;28;20784;-56
2022/09/10 14:13:36;;;;;;;12.53;11.43;;;;;;;;;;4982856;28;20179;-56
2022/09/10 14:16:04;;;;;;;12.67;11.47;;;;;;;;;;4976182;28;20178;-57
2022/09/10 14:18:39;;;;;;;12.10;11.17;;;;;;;;;;4987133;28;20740;-56
2022/09/10 14:21:05;;;;;;;12.83;11.63;;;;;;;;;;4990111;28;20190;-56
2022/09/10 14:23:32;;;;;;;13.00;11.80;;;;;;;;;;4955637;28;20587;-57
2022/09/10 14:26:16;;;;;;;13.77;12.57;;;;;;;;;;4987847;28;20168;-56
2022/09/10 14:29:12;;;;;;;14.13;12.83;;;;;;;;;;4996388;28;20210;-57
2022/09/10 14:31:38;;;;;;;17.60;13.53;;;;;;;;;;4956359;28;20193;-56
2022/09/10 14:34:34;;;;;;;17.40;15.77;;;;;;;;;;4994017;28;20585;-56
2022/09/10 14:37:21;;;;;;;17.53;15.37;;;;;;;;;;4990425;28;20557;-56
2022/09/10 14:39:47;;;;;;;16.20;14.53;;;;;;;;;;4986260;28;20182;-56
2022/09/10 14:42:25;;;;;;;15.07;13.50;;;;;;;;;;4986482;28;20199;-56